Time;durP1;ratioP1;P1;durP2;ratioP2;P2;SDS_P1;SDS_P2;PMS_P1;PMS_P2;Temp;Humidity;BMP_temperature;BMP_pressure;BME280_temperature;BME280_humidity;BME280_pressure;Samples;Min_cycle;Max_cycle;Signal;HPM_P1;HPM_P2
2023/01/05 00:01:49;;;;;;;1.75;0.60;;;9.50;99.90;;;;;;4991570;28;20061;-80
2023/01/05 00:04:17;;;;;;;0.60;0.60;;;9.60;99.90;;;;;;4989922;28;20042;-81
2023/01/05 00:06:45;;;;;;;0.70;0.60;;;9.70;99.90;;;;;;4990448;28;20054;-81
2023/01/05 00:09:15;;;;;;;0.50;0.50;;;9.60;99.90;;;;;;4980160;28;20046;-80
2023/01/05 00:22:59;;;;;;;0.68;0.65;;;10.00;99.90;;;;;;4954125;28;20055;-81
2023/01/05 00:25:30;;;;;;;0.50;0.50;;;10.10;99.90;;;;;;4970304;28;20050;-83
2023/01/05 00:27:58;;;;;;;0.52;0.50;;;10.10;99.90;;;;;;4948951;28;20283;-81
2023/01/05 00:30:31;;;;;;;0.60;0.60;;;10.20;99.90;;;;;;4919812;29;20059;-80
2023/01/05 00:33:00;;;;;;;0.80;0.80;;;10.20;99.90;;;;;;4946971;28;20047;-80
2023/01/05 00:35:31;;;;;;;0.40;0.40;;;10.20;99.90;;;;;;4969748;28;20053;-80
2023/01/05 00:38:00;;;;;;;0.47;0.47;;;10.10;99.90;;;;;;4951820;29;20054;-82
2023/01/05 00:40:28;;;;;;;0.40;0.40;;;10.10;99.90;;;;;;4961761;28;20055;-80
2023/01/05 00:42:56;;;;;;;0.50;0.50;;;10.10;99.90;;;;;;4970485;28;20399;-80
2023/01/05 00:45:25;;;;;;;4.25;0.57;;;10.00;99.90;;;;;;4952995;28;20043;-80
2023/01/05 00:47:54;;;;;;;0.50;0.50;;;9.90;99.90;;;;;;4956502;28;20047;-81
2023/01/05 00:50:22;;;;;;;0.60;0.60;;;9.90;99.90;;;;;;4955935;28;20043;-80
2023/01/05 00:52:50;;;;;;;0.50;0.50;;;10.00;99.90;;;;;;4959099;28;20128;-83
2023/01/05 00:55:17;;;;;;;0.50;0.50;;;10.00;99.90;;;;;;4953324;28;20047;-81
2023/01/05 00:57:46;;;;;;;0.40;0.40;;;10.00;99.90;;;;;;4973416;28;20054;-81
2023/01/05 01:00:16;;;;;;;0.52;0.52;;;10.10;99.90;;;;;;4965236;28;20048;-81
2023/01/05 01:02:44;;;;;;;0.50;0.50;;;10.10;99.90;;;;;;4967094;28;20050;-81
2023/01/05 01:05:13;;;;;;;0.40;0.40;;;10.00;99.90;;;;;;4993587;28;20068;-82
2023/01/05 01:07:41;;;;;;;0.57;0.50;;;10.10;99.90;;;;;;4996069;28;20043;-80
2023/01/05 01:10:10;;;;;;;0.68;0.60;;;10.10;99.90;;;;;;4980195;28;20041;-82
2023/01/05 01:12:38;;;;;;;0.57;0.47;;;10.10;99.90;;;;;;4978023;28;20049;-81
2023/01/05 01:15:07;;;;;;;0.70;0.70;;;10.20;99.90;;;;;;4994739;28;20039;-81
2023/01/05 01:17:35;;;;;;;0.60;0.60;;;10.10;99.90;;;;;;4997435;28;20049;-81
2023/01/05 01:20:04;;;;;;;0.50;0.50;;;10.20;99.90;;;;;;5000276;28;20165;-82
2023/01/05 01:22:31;;;;;;;0.40;0.40;;;10.20;99.90;;;;;;5015456;28;20042;-81
2023/01/05 01:25:00;;;;;;;0.55;0.50;;;10.30;99.90;;;;;;5000788;28;20042;-81
2023/01/05 01:27:29;;;;;;;0.40;0.40;;;10.30;99.90;;;;;;5006089;28;20060;-81
2023/01/05 01:29:57;;;;;;;0.50;0.50;;;10.10;99.90;;;;;;4999507;28;20042;-80
2023/01/05 01:32:24;;;;;;;0.40;0.40;;;10.20;99.90;;;;;;4998757;28;20046;-81
2023/01/05 01:34:54;;;;;;;0.50;0.50;;;10.10;99.90;;;;;;5015614;28;20042;-83
2023/01/05 01:37:21;;;;;;;0.40;0.40;;;10.10;99.90;;;;;;4981851;28;20387;-81
2023/01/05 01:39:52;;;;;;;0.50;0.50;;;10.10;99.90;;;;;;4998258;28;20048;-83
2023/01/05 01:42:20;;;;;;;0.68;0.68;;;10.20;99.90;;;;;;4983164;28;20041;-82
2023/01/05 01:44:59;;;;;;;0.50;0.50;;;10.20;99.90;;;;;;4982749;28;20042;-81
2023/01/05 01:47:40;;;;;;;0.60;0.60;;;10.10;99.90;;;;;;5014386;28;20050;-82
2023/01/05 01:50:38;;;;;;;0.40;0.40;;;10.10;99.90;;;;;;4999054;28;20060;-82
2023/01/05 01:53:13;;;;;;;4.55;0.65;;;10.10;99.90;;;;;;4981136;28;20042;-81
2023/01/05 01:55:41;;;;;;;0.50;0.50;;;10.00;99.90;;;;;;5031649;28;20034;-83
2023/01/05 01:58:14;;;;;;;0.60;0.60;;;9.90;99.90;;;;;;4998484;28;20070;-81
2023/01/05 02:00:42;;;;;;;0.50;0.50;;;9.90;99.90;;;;;;5014138;28;20052;-81
2023/01/05 02:03:10;;;;;;;0.50;0.50;;;10.10;99.90;;;;;;5008211;28;20065;-81
2023/01/05 02:05:38;;;;;;;0.70;0.45;;;10.10;99.90;;;;;;5007832;28;20053;-81
2023/01/05 02:08:14;;;;;;;0.45;0.45;;;10.20;99.90;;;;;;5008895;28;20046;-81
2023/01/05 02:11:00;;;;;;;0.50;0.50;;;10.20;99.90;;;;;;4987936;28;20039;-81
2023/01/05 02:14:01;;;;;;;0.68;0.68;;;10.10;99.90;;;;;;5001978;28;20046;-80
2023/01/05 02:16:38;;;;;;;0.40;0.40;;;10.00;99.90;;;;;;4977705;28;20046;-81
2023/01/05 02:19:36;;;;;;;0.45;0.45;;;9.90;99.90;;;;;;4953009;28;20062;-83
2023/01/05 02:22:35;;;;;;;0.40;0.40;;;9.80;99.90;;;;;;4947298;29;20078;-81
2023/01/05 02:25:24;;;;;;;0.90;0.90;;;9.80;99.90;;;;;;4949796;28;20411;-81
2023/01/05 02:27:58;;;;;;;0.52;0.52;;;9.80;99.90;;;;;;4933118;29;20388;-81
2023/01/05 02:30:58;;;;;;;0.40;0.40;;;9.80;99.90;;;;;;4980367;28;20051;-81
2023/01/05 02:33:53;;;;;;;0.57;0.57;;;9.70;99.90;;;;;;4971412;28;20039;-81
2023/01/05 02:36:39;;;;;;;0.60;0.60;;;9.70;99.90;;;;;;4978828;28;20047;-81
2023/01/05 02:39:24;;;;;;;0.73;0.50;;;9.90;99.90;;;;;;4939010;29;20073;-81
2023/01/05 02:42:02;;;;;;;1.38;0.75;;;9.80;99.90;;;;;;4929604;29;20044;-83
2023/01/05 02:44:31;;;;;;;0.40;0.40;;;9.80;99.90;;;;;;4946680;28;20036;-81
2023/01/05 02:47:26;;;;;;;0.50;0.50;;;10.00;99.90;;;;;;4947823;28;20423;-81
2023/01/05 02:50:04;;;;;;;0.80;0.80;;;9.90;99.90;;;;;;4964250;28;20047;-81
2023/01/05 02:52:59;;;;;;;0.45;0.45;;;9.90;99.90;;;;;;4964468;28;20043;-80
2023/01/05 02:55:34;;;;;;;0.50;0.50;;;10.10;99.90;;;;;;4955724;28;20050;-81
2023/01/05 02:58:18;;;;;;;0.60;0.60;;;10.10;99.90;;;;;;4972139;28;20054;-82
2023/01/05 03:00:52;;;;;;;0.57;0.57;;;10.30;99.90;;;;;;4972299;28;20039;-81
2023/01/05 03:03:36;;;;;;;0.50;0.50;;;10.30;99.90;;;;;;4972916;28;20050;-82
2023/01/05 03:06:19;;;;;;;0.73;0.50;;;10.30;99.90;;;;;;4988579;28;20482;-81
2023/01/05 03:09:00;;;;;;;0.50;0.50;;;10.20;99.90;;;;;;4971562;28;20050;-82
2023/01/05 03:14:38;;;;;;;0.50;0.50;;;10.30;99.90;;;;;;4973759;28;20499;-82
2023/01/05 03:17:09;;;;;;;1.00;0.90;;;10.40;99.90;;;;;;4956490;28;20066;-82
2023/01/05 03:19:44;;;;;;;0.50;0.50;;;10.20;99.90;;;;;;4972530;28;20697;-81
2023/01/05 03:37:06;;;;;;;0.60;0.60;;;10.00;99.90;;;;;;4988197;28;20050;-81
2023/01/05 03:39:39;;;;;;;1.48;0.40;;;9.90;99.90;;;;;;4983754;28;20054;-82
2023/01/05 03:42:10;;;;;;;0.50;0.50;;;9.90;99.90;;;;;;4992795;28;20054;-82
2023/01/05 03:44:42;;;;;;;0.50;0.50;;;10.00;99.90;;;;;;4974752;28;20058;-80
2023/01/05 03:47:13;;;;;;;0.60;0.60;;;9.90;99.90;;;;;;4991173;28;20054;-82
2023/01/05 03:49:44;;;;;;;0.60;0.60;;;10.00;99.90;;;;;;4991465;28;20054;-81
2023/01/05 03:52:13;;;;;;;0.50;0.50;;;10.10;99.90;;;;;;4991213;28;20217;-81
2023/01/05 03:54:42;;;;;;;0.50;0.50;;;10.10;99.90;;;;;;4990962;28;20051;-83
2023/01/05 03:57:10;;;;;;;0.50;0.50;;;10.10;99.90;;;;;;4990373;28;20422;-83
2023/01/05 03:59:38;;;;;;;0.63;0.63;;;10.00;99.90;;;;;;4990495;28;20676;-82
2023/01/05 04:02:06;;;;;;;0.60;0.60;;;10.20;99.90;;;;;;4991943;28;20046;-81
2023/01/05 04:04:41;;;;;;;3.42;0.85;;;10.20;99.90;;;;;;5007119;28;20061;-83
2023/01/05 04:07:10;;;;;;;0.40;0.40;;;10.20;99.90;;;;;;4990426;28;20061;-82
2023/01/05 04:09:38;;;;;;;0.57;0.57;;;10.30;99.90;;;;;;4978058;28;20057;-83
2023/01/05 04:12:05;;;;;;;0.50;0.50;;;10.30;99.90;;;;;;4955113;28;20062;-82
2023/01/05 04:14:38;;;;;;;0.60;0.60;;;10.30;99.90;;;;;;4955848;28;20059;-82
2023/01/05 04:17:07;;;;;;;0.40;0.40;;;10.30;99.90;;;;;;4971743;28;20054;-83
2023/01/05 04:19:38;;;;;;;0.55;0.55;;;10.40;99.90;;;;;;4972529;28;20668;-81
2023/01/05 04:22:05;;;;;;;0.70;0.70;;;10.30;99.90;;;;;;4974775;28;20054;-79
2023/01/05 04:24:33;;;;;;;0.52;0.52;;;10.40;99.90;;;;;;4989717;28;20349;-82
2023/01/05 04:27:02;;;;;;;0.65;0.65;;;10.40;99.90;;;;;;4991815;28;20410;-82
2023/01/05 04:29:30;;;;;;;0.50;0.50;;;10.50;99.90;;;;;;4974120;28;20046;-82
2023/01/05 04:32:00;;;;;;;1.25;0.80;;;10.50;99.90;;;;;;4990382;28;20504;-81
2023/01/05 04:34:28;;;;;;;0.50;0.50;;;10.40;99.90;;;;;;4974844;28;20394;-81
2023/01/05 04:36:57;;;;;;;1.52;0.60;;;10.40;99.90;;;;;;4990669;28;20073;-82
2023/01/05 04:39:25;;;;;;;0.60;0.60;;;10.50;99.90;;;;;;4989717;28;20046;-82
2023/01/05 04:41:54;;;;;;;0.45;0.45;;;10.50;99.90;;;;;;4991250;28;20058;-81
2023/01/05 04:44:22;;;;;;;0.40;0.40;;;10.50;99.90;;;;;;4991906;28;20418;-80
2023/01/05 04:46:50;;;;;;;0.50;0.50;;;10.50;99.90;;;;;;4990962;28;20134;-82
2023/01/05 04:49:19;;;;;;;0.75;0.52;;;10.40;99.90;;;;;;4974549;28;20057;-83
2023/01/05 04:51:49;;;;;;;0.50;0.50;;;10.50;99.90;;;;;;4990390;28;20046;-81
2023/01/05 04:54:19;;;;;;;1.00;0.70;;;10.50;99.90;;;;;;4989400;28;20138;-82
2023/01/05 04:56:48;;;;;;;0.40;0.40;;;10.40;99.90;;;;;;5006040;28;20545;-82
2023/01/05 04:59:15;;;;;;;0.80;0.80;;;10.50;99.90;;;;;;4990881;28;20046;-83
2023/01/05 05:01:44;;;;;;;0.60;0.60;;;10.50;99.90;;;;;;4990668;28;20409;-82
2023/01/05 05:04:14;;;;;;;0.50;0.50;;;10.50;99.90;;;;;;4989862;28;20066;-81
2023/01/05 05:06:41;;;;;;;0.50;0.50;;;10.50;99.90;;;;;;4989750;28;20394;-83
2023/01/05 05:09:10;;;;;;;0.70;0.70;;;10.50;99.90;;;;;;4959488;28;20776;-82
2023/01/05 05:11:39;;;;;;;0.85;0.85;;;10.50;99.90;;;;;;4951000;28;20692;-82
2023/01/05 05:14:08;;;;;;;0.80;0.60;;;10.60;99.90;;;;;;4952934;28;20478;-81
2023/01/05 05:16:36;;;;;;;1.25;0.60;;;10.50;99.90;;;;;;4951955;29;20039;-82
2023/01/05 05:19:06;;;;;;;0.50;0.50;;;10.60;99.90;;;;;;4953088;28;20407;-81
2023/01/05 05:21:35;;;;;;;0.65;0.65;;;10.50;99.90;;;;;;4983004;28;20055;-82
2023/01/05 05:24:04;;;;;;;0.77;0.65;;;10.50;99.90;;;;;;4988812;28;20502;-81
2023/01/05 05:26:35;;;;;;;0.50;0.50;;;10.50;99.90;;;;;;4990094;28;20050;-82
2023/01/05 05:29:04;;;;;;;0.45;0.45;;;10.50;99.90;;;;;;4989239;28;20054;-82
2023/01/05 05:31:31;;;;;;;0.50;0.50;;;10.50;99.90;;;;;;4974646;28;20057;-83
2023/01/05 05:34:02;;;;;;;0.60;0.60;;;10.50;99.90;;;;;;5006264;28;20054;-82
2023/01/05 05:36:30;;;;;;;0.70;0.70;;;10.50;99.90;;;;;;4991087;28;20046;-83
2023/01/05 05:38:58;;;;;;;0.63;0.63;;;10.50;99.90;;;;;;4974033;28;20062;-83
2023/01/05 05:41:26;;;;;;;0.60;0.60;;;10.50;99.90;;;;;;4990305;28;20197;-83
2023/01/05 05:43:56;;;;;;;0.60;0.60;;;10.50;99.90;;;;;;4991435;28;20050;-82
2023/01/05 05:46:24;;;;;;;3.70;0.68;;;10.50;99.90;;;;;;4992771;28;20057;-81
2023/01/05 05:48:52;;;;;;;0.60;0.60;;;10.60;99.90;;;;;;4974721;28;20046;-84
2023/01/05 05:51:19;;;;;;;0.63;0.63;;;10.50;99.90;;;;;;4990468;28;20496;-82
2023/01/05 05:53:47;;;;;;;0.70;0.70;;;10.50;99.90;;;;;;4990037;28;20058;-82
2023/01/05 05:56:15;;;;;;;0.63;0.63;;;10.50;99.90;;;;;;4973727;28;20070;-82
2023/01/05 05:58:43;;;;;;;0.50;0.50;;;10.50;99.90;;;;;;4973175;28;20394;-82
2023/01/05 06:01:11;;;;;;;0.60;0.60;;;10.50;99.90;;;;;;4991182;28;20045;-84
2023/01/05 06:03:39;;;;;;;0.50;0.50;;;10.50;99.90;;;;;;4990598;28;20049;-82
2023/01/05 06:06:07;;;;;;;0.60;0.60;;;10.50;99.90;;;;;;4988632;28;20521;-82
2023/01/05 06:08:35;;;;;;;0.63;0.63;;;10.50;99.90;;;;;;4950455;28;20039;-80
2023/01/05 06:11:03;;;;;;;0.60;0.60;;;10.50;99.90;;;;;;4951797;29;20051;-81
2023/01/05 06:13:30;;;;;;;0.60;0.60;;;10.50;99.90;;;;;;4951918;28;20054;-84
2023/01/05 06:15:58;;;;;;;0.40;0.40;;;10.50;99.90;;;;;;4967853;28;20055;-83
2023/01/05 06:18:27;;;;;;;0.50;0.50;;;10.40;99.90;;;;;;4952430;29;20055;-83
2023/01/05 06:20:54;;;;;;;0.45;0.45;;;10.40;99.90;;;;;;4953059;28;20043;-82
2023/01/05 06:23:28;;;;;;;0.50;0.50;;;10.40;99.90;;;;;;4951994;28;20059;-81
2023/01/05 06:25:55;;;;;;;0.80;0.80;;;10.40;99.90;;;;;;4967987;28;20055;-82
2023/01/05 06:28:23;;;;;;;0.70;0.70;;;10.40;99.90;;;;;;4953886;28;20058;-81
2023/01/05 06:30:51;;;;;;;0.75;0.75;;;10.50;99.90;;;;;;4953807;28;20051;-81
2023/01/05 06:33:19;;;;;;;0.70;0.70;;;10.50;99.90;;;;;;4954911;28;20047;-81
2023/01/05 06:35:47;;;;;;;0.70;0.70;;;10.30;99.90;;;;;;4957165;28;20525;-82
2023/01/05 06:38:15;;;;;;;4.43;0.70;;;10.30;99.90;;;;;;4959651;28;20557;-82
2023/01/05 06:40:46;;;;;;;0.63;0.60;;;10.40;99.90;;;;;;4977576;28;20509;-84
2023/01/05 06:43:14;;;;;;;0.60;0.60;;;10.40;99.90;;;;;;5010656;28;20538;-83
2023/01/05 06:45:42;;;;;;;0.60;0.60;;;10.40;99.90;;;;;;4978653;28;20406;-82
2023/01/05 06:48:11;;;;;;;0.63;0.63;;;10.40;99.90;;;;;;4994645;28;20062;-82
2023/01/05 06:50:38;;;;;;;0.70;0.70;;;10.40;99.90;;;;;;4994303;28;20058;-82
2023/01/05 06:53:06;;;;;;;0.50;0.50;;;10.40;99.90;;;;;;4993448;28;20490;-81
2023/01/05 06:55:35;;;;;;;0.63;0.63;;;10.40;99.90;;;;;;4996495;28;20054;-82
2023/01/05 06:58:02;;;;;;;0.57;0.57;;;10.30;99.90;;;;;;4977263;28;20557;-81
2023/01/05 07:00:33;;;;;;;0.63;0.63;;;10.30;99.90;;;;;;4992227;28;20049;-84
2023/01/05 07:03:01;;;;;;;1.02;0.70;;;10.20;99.90;;;;;;4977877;28;20061;-83
2023/01/05 07:05:31;;;;;;;0.60;0.60;;;10.20;99.90;;;;;;4993044;28;20054;-82
2023/01/05 07:07:59;;;;;;;0.70;0.70;;;10.20;99.90;;;;;;4992312;28;20537;-82
2023/01/05 07:10:27;;;;;;;1.17;0.50;;;10.20;99.90;;;;;;4955070;29;20055;-82
2023/01/05 07:12:55;;;;;;;0.80;0.80;;;10.30;99.90;;;;;;4955507;28;20051;-83
2023/01/05 07:15:22;;;;;;;0.50;0.50;;;10.30;99.90;;;;;;4953851;28;20058;-82
2023/01/05 07:17:50;;;;;;;0.60;0.60;;;10.20;99.90;;;;;;4971108;28;20058;-81
2023/01/05 07:20:17;;;;;;;0.77;0.65;;;10.20;99.90;;;;;;4956062;28;20047;-82
2023/01/05 07:22:45;;;;;;;0.50;0.50;;;10.20;99.90;;;;;;4954500;29;20074;-84
2023/01/05 07:25:13;;;;;;;0.50;0.50;;;10.10;99.90;;;;;;4952790;28;20054;-83
2023/01/05 07:27:41;;;;;;;2.35;0.65;;;10.20;99.90;;;;;;4969309;28;20051;-82
2023/01/05 07:30:09;;;;;;;0.68;0.50;;;10.20;99.90;;;;;;4955973;28;20055;-83
2023/01/05 07:32:37;;;;;;;0.50;0.50;;;10.30;99.90;;;;;;4954813;28;20502;-82
2023/01/05 07:35:05;;;;;;;0.50;0.50;;;10.30;99.90;;;;;;4954951;28;20051;-83
2023/01/05 07:37:35;;;;;;;0.52;0.52;;;10.30;99.90;;;;;;4953384;28;20058;-82
2023/01/05 07:40:03;;;;;;;0.55;0.55;;;10.40;99.90;;;;;;4954655;28;20062;-82
2023/01/05 07:42:31;;;;;;;0.50;0.50;;;10.30;99.90;;;;;;4970504;28;20426;-84
2023/01/05 07:44:59;;;;;;;1.40;0.80;;;10.30;99.90;;;;;;4970349;28;20054;-84
2023/01/05 07:47:27;;;;;;;0.75;0.60;;;10.30;99.90;;;;;;4954811;28;20051;-83
2023/01/05 07:49:54;;;;;;;1.48;0.55;;;10.30;99.90;;;;;;4970866;28;20059;-84
2023/01/05 07:52:22;;;;;;;0.60;0.60;;;10.20;99.90;;;;;;4969982;28;20051;-83
2023/01/05 07:54:50;;;;;;;0.50;0.50;;;10.30;99.90;;;;;;4956679;29;20404;-83
2023/01/05 07:57:17;;;;;;;0.50;0.50;;;10.30;99.90;;;;;;4955277;28;20051;-83
2023/01/05 07:59:48;;;;;;;0.43;0.43;;;10.30;99.90;;;;;;4953526;28;20050;-82
2023/01/05 08:02:16;;;;;;;1.15;1.08;;;10.30;99.90;;;;;;4962729;28;20058;-82
2023/01/05 08:04:45;;;;;;;0.60;0.60;;;10.30;99.90;;;;;;4973405;28;20047;-83
2023/01/05 08:07:14;;;;;;;0.50;0.50;;;10.30;99.90;;;;;;4973320;28;20054;-83
2023/01/05 08:12:29;;;;;;;0.60;0.60;;;10.30;99.90;;;;;;4938264;29;20055;-81
2023/01/05 08:14:57;;;;;;;0.50;0.50;;;10.20;99.90;;;;;;4936896;29;20063;-84
2023/01/05 08:17:26;;;;;;;0.50;0.50;;;10.30;99.90;;;;;;4933849;28;20466;-84
2023/01/05 08:19:54;;;;;;;0.55;0.55;;;10.30;99.90;;;;;;4920860;28;20046;-82
2023/01/05 08:22:21;;;;;;;0.50;0.50;;;10.30;99.90;;;;;;4952770;28;20545;-82
2023/01/05 08:24:51;;;;;;;0.52;0.52;;;10.30;99.90;;;;;;4969870;28;20557;-85
2023/01/05 08:27:19;;;;;;;0.50;0.50;;;10.30;99.90;;;;;;4953825;28;20051;-82
2023/01/05 08:29:47;;;;;;;0.60;0.60;;;10.30;99.90;;;;;;4954215;28;20069;-82
2023/01/05 08:32:15;;;;;;;0.50;0.40;;;10.20;99.90;;;;;;4971453;28;20513;-84
2023/01/05 08:34:49;;;;;;;0.50;0.50;;;10.30;99.90;;;;;;4984815;28;20050;-81
2023/01/05 08:37:22;;;;;;;0.60;0.60;;;10.20;99.90;;;;;;5010243;28;20039;-83
2023/01/05 08:39:49;;;;;;;0.40;0.40;;;10.30;99.90;;;;;;4999229;28;20049;-81
2023/01/05 08:42:17;;;;;;;0.47;0.47;;;10.40;99.90;;;;;;4999799;28;20053;-83
2023/01/05 08:44:45;;;;;;;0.45;0.45;;;10.30;99.90;;;;;;5001109;28;20043;-81
2023/01/05 08:47:12;;;;;;;1.02;0.88;;;10.40;99.90;;;;;;5000033;28;20046;-82
2023/01/05 08:49:40;;;;;;;0.60;0.60;;;10.40;99.90;;;;;;5002473;28;20054;-82
2023/01/05 08:52:08;;;;;;;0.70;0.70;;;10.40;99.90;;;;;;4981912;28;20050;-81
2023/01/05 08:54:35;;;;;;;0.50;0.50;;;10.20;99.90;;;;;;5002238;28;20126;-82
2023/01/05 08:57:03;;;;;;;2.05;0.70;;;10.20;99.90;;;;;;4999122;28;20061;-81
2023/01/05 08:59:31;;;;;;;1.15;0.50;;;10.20;99.90;;;;;;4971169;28;20058;-84
2023/01/05 09:01:58;;;;;;;0.50;0.50;;;10.20;99.90;;;;;;5002259;28;20073;-86
2023/01/05 09:04:26;;;;;;;0.60;0.60;;;10.20;99.90;;;;;;5002846;28;20255;-83
2023/01/05 09:06:55;;;;;;;0.75;0.75;;;10.30;99.90;;;;;;4999191;28;20054;-82
2023/01/05 09:09:23;;;;;;;0.40;0.40;;;10.20;99.90;;;;;;4992056;28;20053;-82
2023/01/05 09:11:50;;;;;;;0.50;0.50;;;10.00;99.90;;;;;;4980416;28;20050;-82
2023/01/05 09:14:18;;;;;;;0.75;0.75;;;9.60;99.90;;;;;;4980287;28;20093;-83
2023/01/05 09:16:46;;;;;;;0.70;0.70;;;9.40;99.90;;;;;;4979944;28;20423;-82
2023/01/05 09:19:33;;;;;;;1.15;0.60;;;9.30;99.90;;;;;;4984481;28;20446;-83
2023/01/05 09:22:01;;;;;;;0.70;0.70;;;9.10;99.90;;;;;;5013332;28;20050;-82
2023/01/05 09:24:29;;;;;;;0.60;0.60;;;9.00;99.90;;;;;;5014955;28;20038;-82
2023/01/05 09:26:56;;;;;;;0.57;0.57;;;9.00;99.90;;;;;;5016626;28;20030;-82
2023/01/05 09:29:24;;;;;;;0.80;0.80;;;9.10;99.90;;;;;;5016764;28;20030;-82
2023/01/05 09:31:52;;;;;;;4.40;0.80;;;8.90;99.90;;;;;;5016369;28;20030;-82
2023/01/05 09:34:26;;;;;;;0.60;0.60;;;8.90;99.90;;;;;;5000219;28;20053;-83
2023/01/05 09:36:54;;;;;;;0.60;0.60;;;8.90;99.90;;;;;;5017061;28;20039;-82
2023/01/05 09:39:23;;;;;;;1.30;1.27;;;8.90;99.90;;;;;;5015830;28;20056;-81
2023/01/05 09:41:58;;;;;;;1.13;1.13;;;8.80;99.90;;;;;;4991253;28;20039;-83
2023/01/05 09:44:54;;;;;;;0.90;0.90;;;8.80;99.90;;;;;;4984274;28;20045;-83
2023/01/05 09:47:35;;;;;;;1.70;0.70;;;8.80;99.90;;;;;;4973539;28;20046;-83
2023/01/05 09:50:07;;;;;;;0.75;0.60;;;8.80;99.90;;;;;;4996040;28;20061;-83
2023/01/05 09:52:35;;;;;;;0.60;0.60;;;8.80;99.90;;;;;;4996212;28;20031;-83
2023/01/05 09:55:16;;;;;;;0.80;0.80;;;8.80;99.90;;;;;;4997522;28;20050;-83
2023/01/05 09:57:49;;;;;;;1.15;0.60;;;8.80;99.90;;;;;;4995978;28;20059;-83
2023/01/05 10:00:17;;;;;;;0.80;0.68;;;8.90;99.90;;;;;;4995346;28;20035;-83
2023/01/05 10:02:58;;;;;;;0.60;0.60;;;9.00;99.90;;;;;;4996894;28;20049;-83
2023/01/05 10:05:30;;;;;;;1.85;0.63;;;9.00;99.90;;;;;;4997497;28;20110;-83
2023/01/05 10:08:16;;;;;;;0.70;0.70;;;9.20;99.90;;;;;;4991290;28;20051;-83
2023/01/05 10:14:12;;;;;;;0.60;0.60;;;9.40;99.90;;;;;;4970866;28;20039;-83
2023/01/05 10:16:43;;;;;;;0.50;0.50;;;9.40;99.90;;;;;;4992136;28;20049;-83
2023/01/05 10:19:18;;;;;;;0.40;0.40;;;9.40;99.90;;;;;;4990156;28;20059;-82
2023/01/05 10:22:31;;;;;;;0.40;0.40;;;9.50;99.90;;;;;;4983511;28;21220;-83
2023/01/05 10:25:14;;;;;;;0.50;0.50;;;9.40;99.90;;;;;;4953899;29;20111;-83
2023/01/05 10:28:09;;;;;;;0.52;0.52;;;9.40;99.90;;;;;;4998138;28;20030;-80
2023/01/05 10:31:01;;;;;;;0.60;0.60;;;9.40;99.90;;;;;;4989975;28;20042;-82
2023/01/05 10:33:51;;;;;;;0.70;0.70;;;9.40;99.90;;;;;;4983889;28;20757;-81
2023/01/05 10:36:53;;;;;;;0.82;0.82;;;9.20;99.90;;;;;;4978685;28;20043;-82
2023/01/05 10:39:48;;;;;;;0.70;0.70;;;9.00;99.90;;;;;;4991018;28;20042;-82
2023/01/05 10:42:48;;;;;;;0.60;0.60;;;8.80;99.90;;;;;;4996512;28;20109;-82
2023/01/05 10:45:18;;;;;;;0.50;0.50;;;8.80;99.90;;;;;;4998964;28;20046;-81
2023/01/05 10:47:47;;;;;;;0.52;0.52;;;8.70;99.90;;;;;;4995932;28;20039;-83
2023/01/05 10:50:26;;;;;;;0.65;0.60;;;8.70;99.90;;;;;;4997972;28;20046;-83
2023/01/05 10:52:55;;;;;;;0.80;0.75;;;8.60;99.90;;;;;;4995840;28;20046;-82
2023/01/05 10:55:24;;;;;;;0.65;0.60;;;8.60;99.90;;;;;;4995144;28;20404;-82
2023/01/05 10:57:51;;;;;;;0.82;0.70;;;8.60;99.90;;;;;;4997606;28;20073;-83
2023/01/05 11:00:21;;;;;;;0.60;0.60;;;8.50;99.90;;;;;;4975717;28;20537;-84
2023/01/05 11:02:51;;;;;;;0.52;0.52;;;8.50;99.90;;;;;;4974859;28;20054;-82
2023/01/05 11:05:24;;;;;;;0.80;0.80;;;8.50;99.90;;;;;;4955727;28;20043;-82
2023/01/05 11:07:57;;;;;;;0.82;0.82;;;8.50;99.90;;;;;;4971204;28;20531;-83
2023/01/05 11:10:33;;;;;;;0.55;0.55;;;8.40;99.90;;;;;;4970947;28;20054;-82
2023/01/05 11:13:20;;;;;;;4.47;1.20;;;8.40;99.90;;;;;;4971383;28;20478;-83
2023/01/05 11:16:11;;;;;;;0.70;0.70;;;8.40;99.90;;;;;;4971309;28;20077;-83
2023/01/05 11:18:49;;;;;;;;;;;8.50;99.90;;;;;;4972771;28;20069;-83
2023/01/05 11:21:19;;;;;;;0.50;0.50;;;8.60;99.90;;;;;;4986045;28;19925;-83
2023/01/05 11:23:48;;;;;;;0.60;0.60;;;8.60;99.90;;;;;;4989866;28;20406;-83
2023/01/05 11:26:36;;;;;;;0.70;0.70;;;8.70;99.90;;;;;;4991761;28;20399;-82
2023/01/05 11:29:10;;;;;;;0.50;0.50;;;8.80;99.90;;;;;;4973897;28;20514;-81
2023/01/05 11:31:51;;;;;;;0.70;0.70;;;8.90;99.90;;;;;;4978842;28;20375;-82
2023/01/05 11:34:19;;;;;;;0.88;0.88;;;8.90;99.90;;;;;;4980293;28;20283;-82
2023/01/05 11:37:17;;;;;;;0.70;0.70;;;9.00;99.90;;;;;;4972119;28;20051;-82
2023/01/05 11:39:50;;;;;;;0.60;0.60;;;8.90;99.90;;;;;;4967420;28;20039;-82
2023/01/05 11:42:23;;;;;;;0.73;0.73;;;9.00;99.90;;;;;;4990434;28;20445;-82
2023/01/05 11:44:58;;;;;;;0.60;0.60;;;9.00;99.90;;;;;;4974385;28;20065;-82
2023/01/05 11:47:44;;;;;;;0.95;0.70;;;9.10;99.90;;;;;;4991276;28;20054;-82
2023/01/05 11:50:24;;;;;;;0.73;0.73;;;9.10;99.90;;;;;;4991520;28;20054;-82
2023/01/05 11:53:00;;;;;;;0.90;0.90;;;9.10;99.90;;;;;;4990052;28;20054;-83
2023/01/05 11:55:33;;;;;;;2.60;0.90;;;9.10;99.90;;;;;;4973008;28;20058;-82
2023/01/05 11:58:19;;;;;;;0.70;0.70;;;9.10;99.90;;;;;;4982236;28;20054;-82
2023/01/05 12:01:08;;;;;;;0.50;0.47;;;9.20;99.90;;;;;;4973294;28;20059;-82
2023/01/05 12:03:49;;;;;;;0.80;0.80;;;9.20;99.90;;;;;;4990801;28;20050;-83
2023/01/05 12:06:47;;;;;;;0.90;0.90;;;9.30;99.90;;;;;;4990708;28;20046;-82
2023/01/05 12:09:19;;;;;;;0.73;0.73;;;9.40;99.90;;;;;;4977989;28;20046;-82
2023/01/05 12:12:06;;;;;;;1.42;1.00;;;9.50;99.90;;;;;;4969728;28;20047;-82
2023/01/05 12:14:46;;;;;;;0.60;0.60;;;9.60;99.90;;;;;;4970589;28;20054;-82
2023/01/05 12:17:18;;;;;;;5.43;0.88;;;9.70;99.90;;;;;;4969695;28;20051;-81
2023/01/05 12:20:00;;;;;;;0.43;0.43;;;9.70;99.90;;;;;;4972586;28;20394;-82
2023/01/05 12:22:40;;;;;;;0.73;0.73;;;9.60;99.90;;;;;;4988166;28;20050;-82
2023/01/05 12:25:30;;;;;;;1.60;0.95;;;9.60;99.90;;;;;;4972629;28;20046;-81
2023/01/05 12:28:07;;;;;;;0.60;0.60;;;9.50;99.90;;;;;;4988167;28;20058;-83
2023/01/05 12:31:13;;;;;;;0.60;0.60;;;9.50;99.90;;;;;;4987318;28;20066;-81
2023/01/05 12:34:12;;;;;;;0.52;0.52;;;9.50;99.90;;;;;;4977446;28;20062;-82
2023/01/05 12:37:05;;;;;;;0.73;0.60;;;9.50;99.90;;;;;;4959307;28;20039;-81
2023/01/05 12:39:48;;;;;;;0.82;0.77;;;9.50;99.90;;;;;;4976015;28;20049;-80
2023/01/05 12:42:43;;;;;;;0.50;0.50;;;9.50;99.90;;;;;;4988296;28;20058;-82
2023/01/05 12:45:38;;;;;;;0.63;0.50;;;9.50;99.90;;;;;;4988797;28;20046;-82
2023/01/05 12:48:14;;;;;;;0.68;0.63;;;9.50;99.90;;;;;;4968488;28;20063;-83
2023/01/05 12:51:04;;;;;;;1.17;0.63;;;9.50;99.90;;;;;;4970463;28;20059;-81
2023/01/05 12:53:36;;;;;;;1.10;0.90;;;9.60;99.90;;;;;;4967868;28;20047;-83
2023/01/05 12:56:22;;;;;;;0.65;0.65;;;9.60;99.90;;;;;;4968910;28;20047;-82
2023/01/05 12:59:11;;;;;;;1.73;1.63;;;9.60;99.90;;;;;;4958916;28;20054;-82
2023/01/05 13:02:12;;;;;;;2.15;0.90;;;9.50;99.90;;;;;;4967643;28;20514;-83
2023/01/05 13:04:53;;;;;;;1.17;0.90;;;9.60;99.90;;;;;;4970945;28;20041;-82
2023/01/05 13:07:29;;;;;;;0.80;0.80;;;9.60;99.90;;;;;;4965001;28;20054;-82
2023/01/05 13:10:00;;;;;;;0.70;0.70;;;9.60;99.90;;;;;;4946089;28;20780;-83
2023/01/05 13:12:31;;;;;;;0.70;0.70;;;9.60;99.90;;;;;;4955634;28;20054;-83
2023/01/05 13:15:18;;;;;;;0.65;0.60;;;9.70;99.90;;;;;;4967744;28;20062;-83
2023/01/05 13:17:49;;;;;;;0.55;0.55;;;9.70;99.90;;;;;;4966716;28;20054;-83
2023/01/05 13:20:29;;;;;;;0.70;0.70;;;9.70;99.90;;;;;;4982851;28;20454;-83
2023/01/05 13:23:05;;;;;;;0.70;0.70;;;9.60;99.90;;;;;;4970479;28;20051;-82
2023/01/05 13:25:55;;;;;;;1.08;1.00;;;9.70;99.90;;;;;;4959267;28;20035;-82
2023/01/05 13:28:24;;;;;;;0.82;0.73;;;9.70;99.90;;;;;;4969138;28;20053;-83
2023/01/05 13:31:33;;;;;;;2.05;0.60;;;9.80;99.90;;;;;;4983640;28;20053;-84
2023/01/05 13:34:32;;;;;;;0.52;0.50;;;9.80;99.90;;;;;;4975895;28;20066;-82
2023/01/05 13:37:33;;;;;;;0.57;0.57;;;9.90;99.90;;;;;;4969143;28;20047;-84
2023/01/05 13:40:07;;;;;;;0.60;0.60;;;9.90;99.90;;;;;;4984329;28;20039;-83
2023/01/05 13:42:43;;;;;;;0.57;0.57;;;9.80;99.90;;;;;;4987681;28;20054;-83
2023/01/05 13:45:46;;;;;;;0.65;0.65;;;9.70;99.90;;;;;;4955664;28;20664;-83
2023/01/05 13:48:41;;;;;;;0.75;0.75;;;9.60;99.90;;;;;;4969463;28;20051;-83
2023/01/05 13:51:48;;;;;;;1.15;1.05;;;9.40;99.90;;;;;;4989505;28;20073;-83
2023/01/05 13:54:40;;;;;;;0.67;0.67;;;9.30;99.90;;;;;;4988484;28;20042;-85
2023/01/05 13:57:27;;;;;;;0.75;0.75;;;9.20;99.90;;;;;;4988834;28;20126;-84
2023/01/05 14:00:07;;;;;;;0.82;0.82;;;9.10;99.90;;;;;;4987439;28;20054;-83
2023/01/05 14:02:42;;;;;;;11.55;1.60;;;9.00;99.90;;;;;;4988289;28;20057;-84